Sunday, December 17, 2017, 4:25 PM EST
Back to Local

KAOO, Altoona-blair County Airport

Location: Martinsburg, PA, United States Lat: 40.3
Local Time: 4:25 PM EST (21:25 GMT) Lon: -78.317
Time Zone: US/Eastern Elev: 1502 ft

Show me the last for .
Show Coded

Time T Td Feel RH Dir Speed Gust Alt SLP Vis Weather Sky Remarks
2017-12-17 15:53 41 30 36 64 180° 8 - 30.12 30.15 10 OVC110 None
2017-12-17 14:53 41 30 36 64 210° 8 - 30.12 30.16 10 SCT120 None
2017-12-17 13:53 42 29 38 59 200° 6 - 30.13 30.17 10 CLR None
2017-12-17 12:53 40 31 36 69 210° 6 - 30.15 30.19 10 CLR 6-hr Min Temp (1pm): 30.9°F
6-hr Max Temp (1pm): 39.9°F
2017-12-17 11:53 39 30 33 69 210° 8 - 30.19 30.23 10 CLR None
2017-12-17 10:53 38 30 34 72 170° 5 - 30.22 30.26 10 CLR None
2017-12-17 09:53 37 29 - 72 - Calm - 30.20 30.24 10 CLR None
2017-12-17 08:53 35 28 30 75 210° 6 - 30.19 30.23 10 CLR None
2017-12-17 07:53 35 26 - 69 - Calm - 30.19 30.23 10 CLR None
2017-12-17 06:53 33 25 27 71 210° 7 - 30.20 30.24 10 CLR 6-hr Min Temp (7am): 28.0°F
6-hr Max Temp (7am): 37.9°F
2017-12-17 05:53 31 24 26 75 170° 5 - 30.17 30.21 10 CLR None
2017-12-17 04:53 33 24 27 69 190° 7 - 30.15 30.19 10 CLR None
2017-12-17 03:53 37 26 31 64 230° 8 - 30.16 30.19 10 CLR None
2017-12-17 02:53 32 24 - 72 - Calm - 30.16 30.20 10 CLR None
2017-12-17 01:53 30 23 25 74 200° 5 - 30.15 30.19 10 CLR None
2017-12-17 00:53 28 22 - 77 - Calm - 30.14 30.18 10 CLR 6-hr Min Temp (1am): 28.0°F
6-hr Max Temp (1am): 39.0°F
2017-12-16 23:53 32 24 - 72 - Calm - 30.13 30.16 10 CLR 24-hr Min Temp (12am): 27.0°F
24-hr Max Temp (12am): 39.0°F
2017-12-16 22:53 30 23 - 74 - Calm - 30.12 30.16 10 CLR None
2017-12-16 21:53 31 23 - 72 - Calm - 30.11 30.15 10 CLR None
2017-12-16 20:53 38 25 33 59 240° 6 - 30.10 30.14 10 CLR None
2017-12-16 19:53 37 25 - 61 - Calm - 30.10 30.14 10 CLR None
2017-12-16 18:53 37 24 34 59 190° 3 - 30.09 30.13 10 CLR 6-hr Min Temp (7pm): 35.1°F
6-hr Max Temp (7pm): 39.0°F
2017-12-16 17:53 37 25 32 61 260° 6 - 30.05 30.09 10 CLR None
2017-12-16 16:53 38 26 30 61 270° 12 - 30.01 30.06 10 BKN120 None

Support USWX by starting your Amazon purchase here.